Portada
METAR-TAF:

METAR-TAF

Aeroports :

Cienfuegos, Cuba

latitud: 22-09N, longitud: 080-24W, altitud: 39 m

Observació

L'informe es va fer fa 1 hora i 8 minuts, a les 21:59 UTC
Vent 12 kt del Sud-Oest
Temperatura 28°C
Humitat 62%
Pressió 1013 hPa

METAR: MUCF 152159Z AUTO 23012KT 28/20 Q1013

Hora: 19:07 (23:07 UTC)

Pronòstic

L'informe es va fer fa 6 hores i 7 minuts, a les 17:00 UTC
Pronòstic vàlid del 15 a les 18 UTC al 16 a les 06 UTC
Vent 10 kt del Sud-Oest
Visibilitat: 9000 m
Núvols disperses a una alçada de 2000 ft
Evolucionant progressivament
l' 16 a les 00 UTC al 16 a les 02 UTC
Vent 3 kt amb direcció variable

TAF: MUCF 151700Z 1518/1606 23010KT 9000 SCT020 BECMG 1600/1602 VRB03KT

Observacions i pronòstics meteorològics de més de 4000 aeroports (METAR i TAF).

Les estacions disponibles són els punts grocs i vermells al mapa.

Posi el ratolí al punt desitjat per veure el nom de l'estació.

Feu clic per veure les observacions i els pronòstics meteorològics.

Per canviar el mapa: feu clic els botons verds amb una creu de color negre per apropar; al botó verd amb un guió per allunyar la imatge; o en les fletxes verdes per a mapes adjacents.


METAR-TAF: